createdAt,value
2022-09-02T00:02:25.468Z,2.20
2022-09-02T00:04:54.910Z,2.70
2022-09-02T00:07:25.107Z,2.23
2022-09-02T00:09:53.121Z,2.10
2022-09-02T00:12:21.196Z,2.70
2022-09-02T00:14:49.164Z,2.20
2022-09-02T00:17:17.211Z,2.97
2022-09-02T00:19:45.271Z,2.80
2022-09-02T00:22:14.591Z,2.37
2022-09-02T00:24:42.762Z,2.80
2022-09-02T00:27:11.085Z,2.60
2022-09-02T00:29:39.760Z,2.90
2022-09-02T00:32:07.917Z,2.93
2022-09-02T00:34:35.957Z,2.83
2022-09-02T00:37:03.961Z,2.57
2022-09-02T00:39:33.469Z,2.60
2022-09-02T00:42:02.218Z,2.77
2022-09-02T00:44:30.647Z,2.90
2022-09-02T00:46:58.813Z,3.20
2022-09-02T00:49:28.858Z,2.80
2022-09-02T00:52:03.627Z,2.80
2022-09-02T00:54:35.959Z,3.00
2022-09-02T00:57:08.497Z,3.60
2022-09-02T00:59:47.407Z,2.80
2022-09-02T01:02:17.176Z,3.07
2022-09-02T01:04:46.961Z,2.67
2022-09-02T01:07:16.130Z,2.47
2022-09-02T01:09:45.507Z,2.67
2022-09-02T01:12:14.316Z,3.20
2022-09-02T01:14:42.892Z,3.50
2022-09-02T01:17:11.424Z,2.90
2022-09-02T01:19:43.488Z,2.97
2022-09-02T01:22:21.660Z,2.70
2022-09-02T01:24:49.839Z,2.90
2022-09-02T01:27:21.793Z,2.73
2022-09-02T01:29:53.191Z,2.97
2022-09-02T01:32:21.821Z,2.90
2022-09-02T01:34:50.009Z,2.80
2022-09-02T01:37:19.798Z,3.00
2022-09-02T01:39:48.703Z,2.73
2022-09-02T01:42:16.978Z,2.80
2022-09-02T01:44:45.077Z,3.10
2022-09-02T01:47:14.977Z,3.10
2022-09-02T01:49:43.197Z,2.90
2022-09-02T01:52:12.429Z,3.00
2022-09-02T01:54:41.969Z,2.97
2022-09-02T01:57:10.322Z,2.30
2022-09-02T01:59:39.866Z,3.07
2022-09-02T02:02:08.877Z,2.37
2022-09-02T02:04:37.722Z,2.60
2022-09-02T02:07:07.820Z,2.57
2022-09-02T02:09:35.987Z,2.93
2022-09-02T02:12:06.260Z,2.83
2022-09-02T02:14:35.606Z,2.90
2022-09-02T02:17:04.666Z,2.87
2022-09-02T02:19:33.108Z,2.70
2022-09-02T02:22:01.352Z,2.87
2022-09-02T02:24:29.379Z,3.00
2022-09-02T02:26:57.389Z,2.90
2022-09-02T02:29:27.161Z,2.70
2022-09-02T02:31:55.318Z,3.40
2022-09-02T02:34:23.462Z,2.80
2022-09-02T02:36:51.433Z,3.17
2022-09-02T02:39:20.776Z,2.70
2022-09-02T02:41:48.877Z,3.47
2022-09-02T02:44:17.720Z,3.00
2022-09-02T02:46:47.201Z,2.77
2022-09-02T02:49:15.283Z,3.03
2022-09-02T02:51:43.607Z,3.10
2022-09-02T02:54:14.414Z,2.77
2022-09-02T02:56:42.771Z,3.03
2022-09-02T02:59:10.788Z,3.27
2022-09-02T03:01:39.818Z,3.20
2022-09-02T03:04:09.800Z,2.70
2022-09-02T03:06:37.925Z,2.70
2022-09-02T03:09:06.918Z,2.93
2022-09-02T03:11:37.142Z,3.23
2022-09-02T03:14:05.740Z,3.10
2022-09-02T03:16:35.695Z,3.00
2022-09-02T03:19:05.088Z,2.90
2022-09-02T03:21:39.011Z,3.10
2022-09-02T03:24:09.142Z,2.47
2022-09-02T03:26:37.224Z,2.60
2022-09-02T03:29:05.822Z,2.93
2022-09-02T03:31:35.363Z,2.90
2022-09-02T03:34:04.171Z,3.27
2022-09-02T03:36:39.690Z,2.30
2022-09-02T03:39:10.269Z,3.00
2022-09-02T03:41:41.952Z,2.80
2022-09-02T03:44:12.127Z,3.00
2022-09-02T03:46:41.313Z,3.40
2022-09-02T03:49:09.800Z,2.70
2022-09-02T03:51:41.517Z,3.20
2022-09-02T03:54:10.602Z,2.90
2022-09-02T03:56:40.176Z,2.70
2022-09-02T03:59:30.187Z,2.97
2022-09-02T04:01:58.308Z,3.10
2022-09-02T04:04:27.359Z,2.90
2022-09-02T04:06:56.787Z,2.70
2022-09-02T04:09:24.789Z,2.80
2022-09-02T04:11:52.911Z,2.97
2022-09-02T04:14:20.959Z,2.90
2022-09-02T04:16:51.927Z,2.70
2022-09-02T04:19:20.644Z,3.13
2022-09-02T04:21:48.999Z,3.13
2022-09-02T04:24:19.358Z,3.00
2022-09-02T04:26:50.404Z,3.30
2022-09-02T04:29:20.453Z,2.90
2022-09-02T04:31:51.476Z,2.60
2022-09-02T04:34:19.469Z,3.77
2022-09-02T04:36:49.910Z,3.50
2022-09-02T04:39:20.996Z,2.70
2022-09-02T04:41:50.747Z,3.03
2022-09-02T04:44:18.866Z,3.30
2022-09-02T04:46:50.391Z,3.10
2022-09-02T04:49:20.604Z,3.17
2022-09-02T04:51:52.530Z,3.40
2022-09-02T04:54:22.280Z,3.40
2022-09-02T04:56:52.040Z,3.07
2022-09-02T04:59:42.356Z,3.07
2022-09-02T05:02:12.694Z,3.40
2022-09-02T05:04:41.939Z,3.73
2022-09-02T05:07:17.851Z,3.37
2022-09-02T05:09:50.580Z,3.30
2022-09-02T05:12:18.957Z,3.47
2022-09-02T05:14:52.172Z,2.73
2022-09-02T05:17:21.877Z,3.13
2022-09-02T05:19:50.497Z,3.50
2022-09-02T05:22:19.753Z,3.30
2022-09-02T05:24:49.221Z,3.10
2022-09-02T05:27:17.211Z,3.33
2022-09-02T05:29:59.411Z,3.20
2022-09-02T05:32:29.247Z,3.27
2022-09-02T05:34:57.962Z,3.30
2022-09-02T05:37:26.708Z,3.60
2022-09-02T05:39:56.030Z,3.30
2022-09-02T05:42:24.054Z,4.10
2022-09-02T05:44:53.551Z,2.60
2022-09-02T05:47:25.492Z,4.53
2022-09-02T05:49:54.239Z,6.57
2022-09-02T05:52:24.231Z,6.57
2022-09-02T05:54:56.743Z,6.13
2022-09-02T05:57:25.534Z,4.33
2022-09-02T05:59:58.320Z,5.00
2022-09-02T06:02:41.795Z,5.67
2022-09-02T06:05:13.102Z,4.17
2022-09-02T06:07:47.408Z,4.40
2022-09-02T06:10:17.108Z,4.70
2022-09-02T06:12:45.107Z,4.30
2022-09-02T06:15:14.959Z,3.40
2022-09-02T06:17:43.608Z,3.57
2022-09-02T06:20:12.760Z,3.53
2022-09-02T06:22:43.003Z,2.97
2022-09-02T06:25:11.088Z,2.40
2022-09-02T06:27:55.312Z,2.50
2022-09-02T06:30:23.285Z,3.27
2022-09-02T06:32:51.275Z,3.10
2022-09-02T06:35:21.064Z,2.70
2022-09-02T06:37:49.356Z,3.30
2022-09-02T06:40:19.531Z,2.40
2022-09-02T06:42:50.177Z,2.70
2022-09-02T06:45:31.334Z,3.00
2022-09-02T06:48:02.218Z,2.80
2022-09-02T06:50:39.991Z,3.07
2022-09-02T06:53:08.927Z,2.50
2022-09-02T06:55:39.374Z,2.47
2022-09-02T06:58:07.852Z,3.10
2022-09-02T07:00:39.868Z,2.97
2022-09-02T07:03:27.092Z,2.73
2022-09-02T07:06:09.488Z,2.70
2022-09-02T07:08:40.739Z,3.17
2022-09-02T07:11:16.377Z,2.17
2022-09-02T07:13:44.541Z,2.60
2022-09-02T07:16:15.659Z,2.23
2022-09-02T07:18:51.316Z,2.10
2022-09-02T07:21:19.409Z,2.10
2022-09-02T07:23:48.066Z,2.40
2022-09-02T07:26:18.926Z,2.00
2022-09-02T07:28:47.823Z,2.43
2022-09-02T07:31:18.348Z,2.53
2022-09-02T07:33:50.152Z,2.10
2022-09-02T07:36:21.515Z,2.50
2022-09-02T07:38:49.882Z,2.50
2022-09-02T07:41:17.982Z,2.20
2022-09-02T07:43:50.995Z,2.20
2022-09-02T07:46:21.864Z,2.20
2022-09-02T07:48:50.622Z,1.80
2022-09-02T07:51:20.214Z,1.87
2022-09-02T07:53:50.288Z,1.97
2022-09-02T07:56:18.289Z,2.00
2022-09-02T07:58:47.267Z,1.80
2022-09-02T08:01:17.944Z,1.87
2022-09-02T08:03:51.793Z,2.00
2022-09-02T08:06:27.798Z,1.77
2022-09-02T08:09:01.972Z,1.70
2022-09-02T08:11:30.044Z,1.97
2022-09-02T08:13:58.143Z,1.90
2022-09-02T08:16:27.055Z,2.07
2022-09-02T08:18:56.464Z,1.80
2022-09-02T08:21:25.682Z,1.50
2022-09-02T08:23:53.627Z,1.80
2022-09-02T08:26:21.597Z,2.17
2022-09-02T08:28:51.295Z,1.80
2022-09-02T08:31:19.576Z,2.07
2022-09-02T08:33:47.875Z,1.70
2022-09-02T08:36:17.238Z,1.90
2022-09-02T08:38:45.450Z,1.70
2022-09-02T08:41:18.126Z,1.80
2022-09-02T08:43:47.007Z,1.73
2022-09-02T08:46:18.057Z,1.77
2022-09-02T08:48:51.049Z,2.00
2022-09-02T08:51:27.296Z,1.70
2022-09-02T08:54:05.858Z,2.00
2022-09-02T08:56:33.878Z,1.73
2022-09-02T08:59:03.080Z,1.70
2022-09-02T09:01:41.452Z,1.53
2022-09-02T09:04:31.391Z,1.80
2022-09-02T09:07:19.336Z,1.63
2022-09-02T09:10:00.780Z,1.53
2022-09-02T09:12:45.308Z,1.97
2022-09-02T09:15:19.173Z,1.73
2022-09-02T09:17:53.262Z,1.80
2022-09-02T09:20:25.465Z,2.23
2022-09-02T09:22:58.582Z,1.70
2022-09-02T09:25:29.756Z,1.63
2022-09-02T09:27:57.952Z,1.80
2022-09-02T09:30:26.950Z,1.97
2022-09-02T09:32:59.917Z,2.10
2022-09-02T09:35:29.038Z,1.60
2022-09-02T09:37:59.298Z,1.47
2022-09-02T09:40:32.629Z,1.80
2022-09-02T09:43:23.919Z,1.60
2022-09-02T09:45:53.495Z,1.73
2022-09-02T09:48:27.466Z,1.73
2022-09-02T09:51:14.035Z,1.60
2022-09-02T09:53:43.488Z,2.07
2022-09-02T09:56:27.784Z,1.90
2022-09-02T09:58:55.804Z,1.83
2022-09-02T10:01:25.910Z,1.70
2022-09-02T10:03:56.715Z,1.50
2022-09-02T10:06:26.603Z,1.80
2022-09-02T10:08:58.515Z,1.47
2022-09-02T10:11:28.399Z,1.27
2022-09-02T10:14:00.653Z,1.67
2022-09-02T10:16:45.419Z,1.60
2022-09-02T10:19:22.980Z,1.47
2022-09-02T10:22:08.849Z,1.87
2022-09-02T10:24:52.738Z,1.70
2022-09-02T10:27:27.729Z,1.67
2022-09-02T10:30:01.064Z,1.43
2022-09-02T10:32:46.623Z,1.27
2022-09-02T10:35:22.320Z,1.50
2022-09-02T10:38:06.312Z,1.30
2022-09-02T10:40:41.730Z,1.20
2022-09-02T10:43:12.372Z,1.40
2022-09-02T10:45:47.055Z,1.50
2022-09-02T10:48:30.962Z,1.50
2022-09-02T10:51:05.400Z,1.30
2022-09-02T10:53:42.024Z,1.30
2022-09-02T10:56:14.803Z,1.20
2022-09-02T10:58:49.747Z,1.23
2022-09-02T11:01:21.538Z,1.30
2022-09-02T11:04:02.212Z,1.20
2022-09-02T11:06:51.723Z,1.40
2022-09-02T11:09:30.990Z,1.00
2022-09-02T11:12:06.557Z,1.40
2022-09-02T11:14:38.207Z,1.07
2022-09-02T11:17:14.892Z,1.20
2022-09-02T11:19:50.948Z,1.10
2022-09-02T11:22:28.366Z,1.57
2022-09-02T11:25:01.399Z,1.40
2022-09-02T11:27:42.639Z,1.10
2022-09-02T11:30:15.491Z,1.30
2022-09-02T11:32:50.839Z,1.60
2022-09-02T11:35:22.732Z,1.30
2022-09-02T11:37:55.698Z,1.13
2022-09-02T11:40:34.886Z,1.83
2022-09-02T11:43:26.069Z,1.50
2022-09-02T11:46:18.632Z,1.30
2022-09-02T11:49:25.952Z,1.30
2022-09-02T11:52:08.270Z,1.27
2022-09-02T11:54:40.641Z,1.10
2022-09-02T11:57:14.509Z,1.53
2022-09-02T12:00:10.759Z,2.03
2022-09-02T12:02:47.836Z,1.83
2022-09-02T12:05:49.912Z,1.30
2022-09-02T12:09:10.128Z,1.37
2022-09-02T12:11:53.181Z,1.40
2022-09-02T12:15:07.277Z,1.73
2022-09-02T12:17:39.932Z,1.60
2022-09-02T12:20:11.655Z,1.20
2022-09-02T12:22:41.964Z,1.50
2022-09-02T12:25:38.251Z,2.50
2022-09-02T12:28:24.175Z,1.10
2022-09-02T12:31:15.513Z,1.40
2022-09-02T12:33:46.189Z,1.13
2022-09-02T12:36:46.252Z,1.20
2022-09-02T12:39:58.443Z,1.67
2022-09-02T12:42:33.405Z,1.43
2022-09-02T12:45:10.518Z,2.80
2022-09-02T12:47:50.801Z,1.30
2022-09-02T12:50:26.752Z,1.13
2022-09-02T12:53:12.359Z,2.00
2022-09-02T12:55:41.616Z,1.40
2022-09-02T12:58:11.655Z,1.47
2022-09-02T13:00:59.610Z,1.30
2022-09-02T13:03:45.453Z,1.27
2022-09-02T13:06:23.477Z,1.80
2022-09-02T13:09:14.546Z,1.23
2022-09-02T13:12:09.592Z,1.20
2022-09-02T13:15:02.490Z,1.33
2022-09-02T13:17:47.624Z,1.10
2022-09-02T13:20:53.801Z,1.60
2022-09-02T13:24:04.227Z,1.30
2022-09-02T13:26:50.161Z,1.30
2022-09-02T13:29:52.049Z,1.47
2022-09-02T13:32:25.196Z,1.20
2022-09-02T13:34:56.076Z,1.50
2022-09-02T13:37:36.750Z,1.17
2022-09-02T13:40:19.264Z,1.27
2022-09-02T13:42:51.246Z,1.50
2022-09-02T13:45:20.832Z,1.30
2022-09-02T13:47:51.631Z,1.43
2022-09-02T13:50:23.032Z,1.40
2022-09-02T13:53:45.107Z,1.20
2022-09-02T13:55:50.729Z,1.37
2022-09-02T13:58:36.400Z,1.10
2022-09-02T14:01:23.510Z,1.50
2022-09-02T14:03:53.225Z,1.20
2022-09-02T14:06:24.294Z,1.73
2022-09-02T14:08:56.616Z,1.60
2022-09-02T14:11:27.287Z,1.57
2022-09-02T14:13:57.014Z,1.43
2022-09-02T14:16:27.481Z,1.77
2022-09-02T14:19:10.526Z,1.40
2022-09-02T14:21:46.262Z,1.70
2022-09-02T14:24:15.843Z,1.60
2022-09-02T14:26:47.189Z,1.80
2022-09-02T14:29:18.008Z,1.50
2022-09-02T14:31:46.808Z,1.10
2022-09-02T14:34:35.231Z,1.50
2022-09-02T14:37:19.978Z,1.20
2022-09-02T14:40:06.738Z,1.50
2022-09-02T14:42:44.847Z,1.23
2022-09-02T14:45:13.901Z,1.63
2022-09-02T14:47:42.445Z,1.20
2022-09-02T14:50:15.405Z,1.30
2022-09-02T14:52:48.773Z,1.47
2022-09-02T14:55:43.051Z,1.30
2022-09-02T14:58:12.422Z,1.10
2022-09-02T15:00:40.452Z,1.37
2022-09-02T15:03:10.231Z,1.30
2022-09-02T15:05:38.139Z,1.27
2022-09-02T15:08:06.955Z,1.50
2022-09-02T15:10:35.159Z,1.50
2022-09-02T15:13:03.230Z,1.40
2022-09-02T15:15:32.548Z,1.20
2022-09-02T15:18:00.589Z,1.27
2022-09-02T15:20:29.032Z,1.33
2022-09-02T15:22:57.090Z,1.40
2022-09-02T15:25:25.633Z,1.33
2022-09-02T15:27:53.718Z,1.47
2022-09-02T15:30:21.870Z,1.40
2022-09-02T15:32:51.784Z,1.20
2022-09-02T15:35:19.782Z,1.43
2022-09-02T15:37:51.065Z,1.40
2022-09-02T15:40:19.166Z,1.80
2022-09-02T15:42:47.088Z,1.50
2022-09-02T15:45:15.551Z,1.30
2022-09-02T15:47:43.464Z,1.20
2022-09-02T15:50:14.356Z,1.30
2022-09-02T15:52:43.012Z,1.57
2022-09-02T15:55:11.178Z,1.33
2022-09-02T15:57:39.091Z,1.17
2022-09-02T16:00:09.871Z,1.43
2022-09-02T16:02:44.541Z,1.23
2022-09-02T16:05:14.083Z,1.17
2022-09-02T16:07:42.035Z,1.40
2022-09-02T16:10:11.639Z,1.00
2022-09-02T16:12:39.608Z,1.60
2022-09-02T16:15:09.014Z,1.53
2022-09-02T16:17:37.076Z,1.30
2022-09-02T16:20:05.661Z,1.33
2022-09-02T16:22:35.111Z,1.43
2022-09-02T16:25:03.165Z,1.33
2022-09-02T16:27:54.168Z,1.40
2022-09-02T16:30:22.237Z,1.10
2022-09-02T16:32:51.689Z,1.13
2022-09-02T16:35:19.654Z,1.47
2022-09-02T16:37:49.316Z,1.87
2022-09-02T16:40:21.549Z,1.60
2022-09-02T16:42:50.283Z,1.47
2022-09-02T16:45:18.226Z,1.47
2022-09-02T16:47:46.168Z,1.73
2022-09-02T16:50:14.280Z,1.60
2022-09-02T16:52:42.248Z,1.60
2022-09-02T16:55:17.877Z,1.23
2022-09-02T16:57:45.809Z,1.37
2022-09-02T17:00:15.316Z,1.23
2022-09-02T17:02:43.948Z,1.20
2022-09-02T17:05:14.361Z,1.30
2022-09-02T17:07:42.353Z,1.63
2022-09-02T17:10:11.984Z,1.13
2022-09-02T17:12:43.008Z,1.50
2022-09-02T17:15:11.632Z,1.60
2022-09-02T17:17:40.077Z,1.20
2022-09-02T17:20:08.840Z,1.30
2022-09-02T17:22:36.873Z,1.00
2022-09-02T17:25:05.097Z,1.27
2022-09-02T17:27:36.254Z,1.57
2022-09-02T17:30:05.044Z,1.30
2022-09-02T17:32:33.305Z,1.63
2022-09-02T17:35:02.645Z,1.37
2022-09-02T17:37:30.598Z,1.60
2022-09-02T17:39:58.629Z,1.73
2022-09-02T17:42:25.780Z,1.27
2022-09-02T17:44:55.087Z,1.20
2022-09-02T17:47:24.588Z,1.53
2022-09-02T17:49:52.789Z,1.10
2022-09-02T17:52:23.858Z,1.17
2022-09-02T17:54:54.249Z,1.27
2022-09-02T17:57:29.829Z,1.30
2022-09-02T18:00:09.865Z,1.50
2022-09-02T18:03:15.416Z,1.57
2022-09-02T18:06:04.009Z,1.10
2022-09-02T18:08:40.442Z,1.87
2022-09-02T18:11:08.518Z,1.60
2022-09-02T18:13:56.111Z,1.40
2022-09-02T18:16:33.364Z,1.40
2022-09-02T18:19:13.561Z,1.60
2022-09-02T18:22:05.821Z,1.50
2022-09-02T18:24:52.194Z,1.80
2022-09-02T18:27:30.379Z,1.10
2022-09-02T18:30:06.333Z,1.33
2022-09-02T18:33:02.818Z,1.30
2022-09-02T18:35:40.864Z,1.27
2022-09-02T18:38:20.027Z,1.33
2022-09-02T18:40:52.797Z,1.90
2022-09-02T18:43:26.029Z,1.30
2022-09-02T18:45:57.308Z,1.10
2022-09-02T18:48:31.296Z,1.50
2022-09-02T18:51:03.898Z,1.20
2022-09-02T18:53:40.241Z,1.23
2022-09-02T18:56:10.235Z,1.00
2022-09-02T18:58:43.642Z,1.30
2022-09-02T19:01:17.605Z,1.23
2022-09-02T19:03:47.062Z,1.50
2022-09-02T19:06:19.306Z,1.37
2022-09-02T19:08:47.354Z,1.53
2022-09-02T19:11:16.764Z,1.37
2022-09-02T19:13:47.747Z,1.30
2022-09-02T19:16:18.345Z,1.27
2022-09-02T19:18:48.130Z,1.50
2022-09-02T19:21:23.088Z,1.30
2022-09-02T19:23:51.365Z,1.67
2022-09-02T19:26:19.453Z,1.40
2022-09-02T19:28:48.442Z,1.50
2022-09-02T19:31:21.966Z,1.20
2022-09-02T19:33:54.165Z,1.30
2022-09-02T19:36:23.563Z,1.30
2022-09-02T19:38:56.527Z,1.50
2022-09-02T19:41:27.647Z,1.20
2022-09-02T19:43:56.009Z,1.33
2022-09-02T19:49:14.289Z,1.50
2022-09-02T19:51:42.535Z,1.57
2022-09-02T19:54:12.457Z,1.53
2022-09-02T19:56:40.962Z,1.30
2022-09-02T19:59:09.172Z,1.67
2022-09-02T20:01:37.110Z,1.53
2022-09-02T20:04:05.961Z,1.10
2022-09-02T20:06:35.248Z,1.40
2022-09-02T20:09:03.270Z,2.00
2022-09-02T20:11:31.198Z,1.37
2022-09-02T20:13:59.070Z,1.47
2022-09-02T20:16:29.450Z,1.40
2022-09-02T20:18:57.897Z,1.40
2022-09-02T20:21:28.343Z,1.40
2022-09-02T20:24:00.475Z,1.50
2022-09-02T20:26:40.079Z,1.30
2022-09-02T20:29:22.884Z,1.70
2022-09-02T20:32:03.328Z,1.40
2022-09-02T20:34:40.600Z,1.40
2022-09-02T20:37:23.484Z,1.40
2022-09-02T20:40:23.403Z,1.73
2022-09-02T20:43:18.357Z,1.40
2022-09-02T20:45:55.363Z,1.93
2022-09-02T20:48:39.465Z,1.27
2022-09-02T20:51:13.112Z,1.50
2022-09-02T20:54:02.276Z,1.77
2022-09-02T20:56:38.304Z,1.50
2022-09-02T20:59:13.981Z,1.67
2022-09-02T21:01:45.325Z,1.80
2022-09-02T21:04:30.975Z,1.70
2022-09-02T21:07:02.497Z,1.90
2022-09-02T21:09:40.584Z,1.60
2022-09-02T21:12:19.581Z,1.50
2022-09-02T21:14:49.103Z,1.50
2022-09-02T21:17:23.411Z,1.30
2022-09-02T21:20:01.962Z,2.00
2022-09-02T21:22:34.795Z,1.87
2022-09-02T21:25:09.836Z,1.37
2022-09-02T21:27:46.157Z,1.40
2022-09-02T21:30:18.129Z,1.40
2022-09-02T21:32:51.473Z,1.50
2022-09-02T21:35:23.455Z,1.70
2022-09-02T21:37:59.092Z,1.37
2022-09-02T21:40:45.846Z,1.50
2022-09-02T21:43:29.226Z,1.50
2022-09-02T21:46:05.514Z,1.43
2022-09-02T21:48:39.314Z,1.47
2022-09-02T21:51:15.303Z,1.30
2022-09-02T21:53:58.157Z,1.20
2022-09-02T21:56:41.131Z,1.60
2022-09-02T21:59:28.462Z,1.60
2022-09-02T22:02:03.446Z,1.20
2022-09-02T22:04:43.843Z,1.70
2022-09-02T22:07:20.024Z,2.07
2022-09-02T22:09:51.160Z,1.70
2022-09-02T22:12:19.972Z,1.60
2022-09-02T22:14:59.060Z,1.50
2022-09-02T22:17:35.559Z,1.50
2022-09-02T22:20:06.416Z,1.40
2022-09-02T22:22:40.418Z,1.27
2022-09-02T22:25:10.322Z,1.87
2022-09-02T22:27:41.616Z,1.63
2022-09-02T22:30:13.515Z,1.67
2022-09-02T22:32:45.855Z,1.30
2022-09-02T22:35:22.914Z,1.50
2022-09-02T22:37:59.955Z,1.50
2022-09-02T22:40:33.967Z,1.47
2022-09-02T22:43:06.372Z,1.50
2022-09-02T22:45:55.810Z,1.30
2022-09-02T22:48:45.337Z,1.70
2022-09-02T22:51:37.372Z,1.40
2022-09-02T22:54:05.455Z,1.70
2022-09-02T22:56:40.524Z,1.60
2022-09-02T22:59:26.282Z,1.40
2022-09-02T23:02:09.034Z,1.40
2022-09-02T23:04:53.302Z,1.90
2022-09-02T23:07:21.187Z,1.80
2022-09-02T23:09:52.320Z,1.37
2022-09-02T23:12:30.575Z,1.80
2022-09-02T23:15:10.285Z,1.53
2022-09-02T23:17:48.293Z,1.63
2022-09-02T23:20:25.811Z,1.60
2022-09-02T23:23:14.317Z,1.67
2022-09-02T23:26:03.825Z,1.50
2022-09-02T23:28:38.771Z,1.60
2022-09-02T23:31:17.911Z,1.83
2022-09-02T23:33:55.450Z,1.53
2022-09-02T23:36:35.120Z,2.03
2022-09-02T23:39:22.300Z,1.90
2022-09-02T23:41:50.257Z,2.00
2022-09-02T23:44:18.157Z,1.87
2022-09-02T23:46:59.846Z,1.60
2022-09-02T23:49:38.989Z,2.17
2022-09-02T23:52:20.814Z,1.50
2022-09-02T23:55:01.120Z,1.70
2022-09-02T23:57:56.002Z,1.93
